createdAt,value
2019-03-20T00:01:09.721Z,0.00
2019-03-20T00:02:41.541Z,0.00
2019-03-20T00:04:13.351Z,0.00
2019-03-20T00:05:45.174Z,0.00
2019-03-20T00:07:16.985Z,0.00
2019-03-20T00:08:48.797Z,0.00
2019-03-20T00:10:20.614Z,0.00
2019-03-20T00:11:52.529Z,0.00
2019-03-20T00:13:24.245Z,0.00
2019-03-20T00:14:56.059Z,0.00
2019-03-20T00:16:27.874Z,4.00
2019-03-20T00:17:59.705Z,0.00
2019-03-20T00:19:31.505Z,0.00
2019-03-20T00:21:03.323Z,0.00
2019-03-20T00:22:35.158Z,0.00
2019-03-20T00:24:06.950Z,0.00
2019-03-20T00:25:38.765Z,0.00
2019-03-20T00:27:10.581Z,0.00
2019-03-20T00:28:42.397Z,0.00
2019-03-20T00:30:14.765Z,0.00
2019-03-20T00:31:46.026Z,0.00
2019-03-20T00:33:17.842Z,0.00
2019-03-20T00:35:00.350Z,0.00
2019-03-20T00:36:21.474Z,0.00
2019-03-20T00:37:53.286Z,0.00
2019-03-20T00:39:25.103Z,0.00
2019-03-20T00:40:56.918Z,0.00
2019-03-20T00:42:28.735Z,0.00
2019-03-20T00:44:00.548Z,0.00
2019-03-20T00:45:32.364Z,0.00
2019-03-20T00:47:04.178Z,0.00
2019-03-20T00:48:36.094Z,0.00
2019-03-20T00:50:07.810Z,0.00
2019-03-20T00:51:39.624Z,0.00
2019-03-20T00:53:11.440Z,0.00
2019-03-20T00:54:43.255Z,0.00
2019-03-20T00:56:15.069Z,0.00
2019-03-20T00:57:46.884Z,0.00
2019-03-20T00:59:18.699Z,0.00
2019-03-20T01:00:50.515Z,0.00
2019-03-20T01:02:22.329Z,0.00
2019-03-20T01:03:54.146Z,0.00
2019-03-20T01:05:25.959Z,0.00
2019-03-20T01:06:57.924Z,0.00
2019-03-20T01:08:29.589Z,0.00
2019-03-20T01:10:01.415Z,0.00
2019-03-20T01:11:33.234Z,0.00
2019-03-20T01:13:05.034Z,0.00
2019-03-20T01:14:36.849Z,0.00
2019-03-20T01:16:08.689Z,0.00
2019-03-20T01:17:40.478Z,0.00
2019-03-20T01:19:12.557Z,0.00
2019-03-20T01:20:44.108Z,0.00
2019-03-20T01:22:15.923Z,0.00
2019-03-20T01:23:47.742Z,0.00
2019-03-20T01:25:20.001Z,0.00
2019-03-20T01:26:51.369Z,0.00
2019-03-20T01:28:23.183Z,0.00
2019-03-20T01:29:54.999Z,0.00
2019-03-20T01:31:26.814Z,0.00
2019-03-20T01:32:58.666Z,0.00
2019-03-20T01:34:30.442Z,0.00
2019-03-20T01:36:02.257Z,0.00
2019-03-20T01:37:34.073Z,0.00
2019-03-20T01:39:05.896Z,0.00
2019-03-20T01:40:40.009Z,0.00
2019-03-20T01:42:09.520Z,0.00
2019-03-20T01:43:41.432Z,0.00
2019-03-20T01:45:13.419Z,0.00
2019-03-20T01:46:44.962Z,0.00
2019-03-20T01:48:16.775Z,0.00
2019-03-20T01:49:48.592Z,0.00
2019-03-20T01:51:20.410Z,0.00
2019-03-20T01:52:52.220Z,0.00
2019-03-20T01:54:24.035Z,0.00
2019-03-20T01:55:56.226Z,0.00
2019-03-20T01:57:27.682Z,0.00
2019-03-20T01:58:59.578Z,0.00
2019-03-20T02:00:31.331Z,0.00
2019-03-20T02:02:03.388Z,0.00
2019-03-20T02:03:34.943Z,0.00
2019-03-20T02:05:06.742Z,0.00
2019-03-20T02:06:38.559Z,0.00
2019-03-20T02:08:10.372Z,0.00
2019-03-20T02:09:42.188Z,0.00
2019-03-20T02:11:14.010Z,0.00
2019-03-20T02:12:45.816Z,0.00
2019-03-20T02:14:17.631Z,0.00
2019-03-20T02:15:49.447Z,0.00
2019-03-20T02:17:21.261Z,0.00
2019-03-20T02:18:53.076Z,0.00
2019-03-20T02:20:24.996Z,0.00
2019-03-20T02:21:56.707Z,0.00
2019-03-20T02:23:28.523Z,0.00
2019-03-20T02:25:00.405Z,0.00
2019-03-20T02:26:32.150Z,0.00
2019-03-20T02:28:03.965Z,0.00
2019-03-20T02:29:35.780Z,0.00
2019-03-20T02:31:07.598Z,0.00
2019-03-20T02:32:39.426Z,0.00
2019-03-20T02:34:11.226Z,0.00
2019-03-20T02:35:51.499Z,0.00
2019-03-20T02:37:14.857Z,0.00
2019-03-20T02:38:46.771Z,0.00
2019-03-20T02:40:18.485Z,0.00
2019-03-20T02:41:50.299Z,0.00
2019-03-20T02:43:22.114Z,0.00
2019-03-20T02:44:53.930Z,0.00
2019-03-20T02:46:25.745Z,0.00
2019-03-20T02:47:57.560Z,0.00
2019-03-20T02:49:29.379Z,0.00
2019-03-20T02:51:01.190Z,0.00
2019-03-20T02:52:33.005Z,0.00
2019-03-20T02:54:04.898Z,0.00
2019-03-20T02:55:36.634Z,0.00
2019-03-20T02:57:08.550Z,0.00
2019-03-20T02:58:40.269Z,0.00
2019-03-20T03:00:12.121Z,0.00
2019-03-20T03:01:43.894Z,0.00
2019-03-20T03:03:15.710Z,0.00
2019-03-20T03:04:47.525Z,0.00
2019-03-20T03:06:19.338Z,0.00
2019-03-20T03:07:51.155Z,0.00
2019-03-20T03:09:23.068Z,0.00
2019-03-20T03:10:55.799Z,0.00
2019-03-20T03:12:26.603Z,0.00
2019-03-20T03:13:58.412Z,0.00
2019-03-20T03:15:30.329Z,0.00
2019-03-20T03:17:02.051Z,0.00
2019-03-20T03:18:33.857Z,0.00
2019-03-20T03:20:05.680Z,0.00
2019-03-20T03:21:37.487Z,0.00
2019-03-20T03:23:09.305Z,0.00
2019-03-20T03:24:41.119Z,0.00
2019-03-20T03:26:12.932Z,0.00
2019-03-20T03:27:44.745Z,0.00
2019-03-20T03:29:16.559Z,0.00
2019-03-20T03:30:48.428Z,0.00
2019-03-20T03:32:20.199Z,0.00
2019-03-20T03:33:52.107Z,0.00
2019-03-20T03:35:23.818Z,0.00
2019-03-20T03:36:55.634Z,0.00
2019-03-20T03:38:27.472Z,0.00
2019-03-20T03:39:59.264Z,0.00
2019-03-20T03:41:31.081Z,0.00
2019-03-20T03:43:02.894Z,0.00
2019-03-20T03:44:34.708Z,0.00
2019-03-20T03:46:06.542Z,0.00
2019-03-20T03:47:38.337Z,0.00
2019-03-20T03:49:10.152Z,0.00
2019-03-20T03:50:41.967Z,0.00
2019-03-20T03:52:13.881Z,0.00
2019-03-20T03:53:45.611Z,0.00
2019-03-20T03:55:17.416Z,0.00
2019-03-20T03:56:49.226Z,0.00
2019-03-20T03:58:21.041Z,0.00
2019-03-20T03:59:52.858Z,0.00
2019-03-20T04:01:24.748Z,0.00
2019-03-20T04:02:56.485Z,0.00
2019-03-20T04:04:28.302Z,0.00
2019-03-20T04:06:00.116Z,0.00
2019-03-20T04:07:31.940Z,0.00
2019-03-20T04:09:03.744Z,0.00
2019-03-20T04:10:35.918Z,0.00
2019-03-20T04:12:07.384Z,0.00
2019-03-20T04:13:39.190Z,0.00
2019-03-20T04:15:11.005Z,0.00
2019-03-20T04:16:42.820Z,0.00
2019-03-20T04:18:14.644Z,0.00
2019-03-20T04:19:46.454Z,0.00
2019-03-20T04:21:18.266Z,0.00
2019-03-20T04:22:50.079Z,0.00
2019-03-20T04:24:21.912Z,0.00
2019-03-20T04:25:53.709Z,0.00
2019-03-20T04:27:25.526Z,0.00
2019-03-20T04:28:57.440Z,0.00
2019-03-20T04:30:29.155Z,0.00
2019-03-20T04:32:00.970Z,0.00
2019-03-20T04:33:32.786Z,0.00
2019-03-20T04:35:04.608Z,0.00
2019-03-20T04:36:47.198Z,0.00
2019-03-20T04:38:08.231Z,0.00
2019-03-20T04:39:40.046Z,0.00
2019-03-20T04:41:11.861Z,0.00
2019-03-20T04:42:43.679Z,0.00
2019-03-20T04:44:15.490Z,0.00
2019-03-20T04:45:47.305Z,0.00
2019-03-20T04:47:19.221Z,0.00
2019-03-20T04:48:50.936Z,0.00
2019-03-20T04:50:22.750Z,0.00
2019-03-20T04:51:54.566Z,0.00
2019-03-20T04:53:26.485Z,0.00
2019-03-20T04:54:58.195Z,0.00
2019-03-20T04:56:30.011Z,0.00
2019-03-20T04:58:01.826Z,0.00
2019-03-20T04:59:33.647Z,0.00
2019-03-20T05:01:05.459Z,0.00
2019-03-20T05:02:37.271Z,0.00
2019-03-20T05:04:09.085Z,0.00
2019-03-20T05:05:41.050Z,0.00
2019-03-20T05:07:12.716Z,0.00
2019-03-20T05:08:44.529Z,0.00
2019-03-20T05:10:16.351Z,0.00
2019-03-20T05:11:48.159Z,0.00
2019-03-20T05:13:19.974Z,0.00
2019-03-20T05:14:51.791Z,0.00
2019-03-20T05:16:23.604Z,0.00
2019-03-20T05:17:55.520Z,0.00
2019-03-20T05:19:27.233Z,0.00
2019-03-20T05:20:59.048Z,0.00
2019-03-20T05:22:30.869Z,0.00
2019-03-20T05:24:02.928Z,0.00
2019-03-20T05:25:34.492Z,0.00
2019-03-20T05:27:06.311Z,0.00
2019-03-20T05:28:38.122Z,0.00
2019-03-20T05:30:10.037Z,0.00
2019-03-20T05:31:41.753Z,0.00
2019-03-20T05:33:13.566Z,0.00
2019-03-20T05:34:45.380Z,0.00
2019-03-20T05:36:17.195Z,0.00
2019-03-20T05:37:49.011Z,0.00
2019-03-20T05:39:20.825Z,0.00
2019-03-20T05:40:52.639Z,0.00
2019-03-20T05:42:24.703Z,0.00
2019-03-20T05:43:56.270Z,0.00
2019-03-20T05:45:28.082Z,0.00
2019-03-20T05:46:59.897Z,0.00
2019-03-20T05:48:31.712Z,0.00
2019-03-20T05:50:03.538Z,0.00
2019-03-20T05:51:35.340Z,0.00
2019-03-20T05:53:07.156Z,0.00
2019-03-20T05:54:39.069Z,0.00
2019-03-20T05:56:10.784Z,0.00
2019-03-20T05:57:42.598Z,0.00
2019-03-20T05:59:14.413Z,0.00
2019-03-20T06:00:46.428Z,0.00
2019-03-20T06:02:18.042Z,0.00
2019-03-20T06:03:49.859Z,0.00
2019-03-20T06:05:21.675Z,0.00
2019-03-20T06:06:53.489Z,0.00
2019-03-20T06:08:25.302Z,0.00
2019-03-20T06:09:57.115Z,0.00
2019-03-20T06:11:28.930Z,0.00
2019-03-20T06:13:00.745Z,0.00
2019-03-20T06:14:32.560Z,0.00
2019-03-20T06:16:04.385Z,0.00
2019-03-20T06:17:36.189Z,0.00
2019-03-20T06:19:08.103Z,0.00
2019-03-20T06:20:39.817Z,0.00
2019-03-20T06:22:11.634Z,0.00
2019-03-20T06:23:43.446Z,0.00
2019-03-20T06:25:15.266Z,0.00
2019-03-20T06:26:47.075Z,0.00
2019-03-20T06:28:18.890Z,0.00
2019-03-20T06:29:50.704Z,0.00
2019-03-20T06:31:22.518Z,0.00
2019-03-20T06:32:54.332Z,0.00
2019-03-20T06:34:26.146Z,0.00
2019-03-20T06:35:57.961Z,0.00
2019-03-20T06:37:32.748Z,0.00
2019-03-20T06:39:01.589Z,0.00
2019-03-20T06:40:33.404Z,0.00
2019-03-20T06:42:05.221Z,0.00
2019-03-20T06:43:37.035Z,0.00
2019-03-20T06:45:08.847Z,0.00
2019-03-20T06:46:40.661Z,0.00
2019-03-20T06:48:12.476Z,0.00
2019-03-20T06:49:44.290Z,0.00
2019-03-20T06:51:16.110Z,0.00
2019-03-20T06:52:47.919Z,0.00
2019-03-20T06:54:19.733Z,0.00
2019-03-20T06:55:51.647Z,0.00
2019-03-20T06:57:23.364Z,0.00
2019-03-20T06:58:55.174Z,0.00
2019-03-20T07:00:26.988Z,0.00
2019-03-20T07:01:58.804Z,0.00
2019-03-20T07:03:30.617Z,0.00
2019-03-20T07:05:02.432Z,0.00
2019-03-20T07:06:34.245Z,0.00
2019-03-20T07:08:06.060Z,0.00
2019-03-20T07:09:37.877Z,0.00
2019-03-20T07:11:09.688Z,0.00
2019-03-20T07:12:41.504Z,0.00
2019-03-20T07:14:13.417Z,0.00
2019-03-20T07:15:45.130Z,0.00
2019-03-20T07:17:16.946Z,0.00
2019-03-20T07:18:48.760Z,0.00
2019-03-20T07:20:20.573Z,0.00
2019-03-20T07:21:52.389Z,0.00
2019-03-20T07:23:24.202Z,0.00
2019-03-20T07:24:56.016Z,0.00
2019-03-20T07:26:28.763Z,0.00
2019-03-20T07:27:59.644Z,0.00
2019-03-20T07:29:31.458Z,0.00
2019-03-20T07:31:14.315Z,0.00
2019-03-20T07:32:35.187Z,0.00
2019-03-20T07:34:06.900Z,0.00
2019-03-20T07:35:38.715Z,0.00
2019-03-20T07:37:10.533Z,0.00
2019-03-20T07:38:42.344Z,0.00
2019-03-20T07:40:14.158Z,0.00
2019-03-20T07:41:45.975Z,0.00
2019-03-20T07:43:17.786Z,0.00
2019-03-20T07:44:49.599Z,0.00
2019-03-20T07:46:21.413Z,0.00
2019-03-20T07:47:53.230Z,0.00
2019-03-20T07:49:25.042Z,0.00
2019-03-20T07:50:57.656Z,0.00
2019-03-20T07:52:28.669Z,0.00
2019-03-20T07:54:00.488Z,0.00
2019-03-20T07:55:32.297Z,0.00
2019-03-20T07:57:04.111Z,0.00
2019-03-20T07:58:35.927Z,0.00
2019-03-20T08:00:07.748Z,0.00
2019-03-20T08:01:39.556Z,0.00
2019-03-20T08:03:11.366Z,0.00
2019-03-20T08:04:43.180Z,0.00
2019-03-20T08:06:14.995Z,0.00
2019-03-20T08:07:46.811Z,0.00
2019-03-20T08:09:18.736Z,0.00
2019-03-20T08:10:50.436Z,0.00
2019-03-20T08:12:22.251Z,0.00
2019-03-20T08:13:54.065Z,0.00
2019-03-20T08:15:25.946Z,0.00
2019-03-20T08:16:57.693Z,0.00
2019-03-20T08:18:29.507Z,0.00
2019-03-20T08:20:01.327Z,0.00
2019-03-20T08:21:33.135Z,0.00
2019-03-20T08:23:04.948Z,0.00
2019-03-20T08:24:36.762Z,0.00
2019-03-20T08:26:08.576Z,0.00
2019-03-20T08:27:40.541Z,0.00
2019-03-20T08:29:12.204Z,0.00
2019-03-20T08:30:44.020Z,0.00
2019-03-20T08:32:15.833Z,0.00
2019-03-20T08:33:47.647Z,0.00
2019-03-20T08:35:19.462Z,0.00
2019-03-20T08:36:51.274Z,0.00
2019-03-20T08:38:23.089Z,0.00
2019-03-20T08:39:54.902Z,0.00
2019-03-20T08:41:26.716Z,0.00
2019-03-20T08:42:58.530Z,0.00
2019-03-20T08:44:30.347Z,0.00
2019-03-20T08:46:02.259Z,0.00
2019-03-20T08:47:33.972Z,0.00
2019-03-20T08:49:05.787Z,4.00
2019-03-20T08:50:37.601Z,0.00
2019-03-20T08:52:09.415Z,4.00
2019-03-20T08:53:41.230Z,4.00
2019-03-20T08:55:13.044Z,8.00
2019-03-20T08:56:44.858Z,16.00
2019-03-20T08:58:16.672Z,20.00
2019-03-20T08:59:48.485Z,32.00
2019-03-20T09:01:28.176Z,48.00
2019-03-20T09:02:52.114Z,68.00
2019-03-20T09:04:24.029Z,92.00
2019-03-20T09:05:55.741Z,120.00
2019-03-20T09:07:27.560Z,148.00
2019-03-20T09:08:59.371Z,188.00
2019-03-20T09:10:31.184Z,236.00
2019-03-20T09:12:02.998Z,288.00
2019-03-20T09:13:34.813Z,368.00
2019-03-20T09:15:06.653Z,460.00
2019-03-20T09:16:38.444Z,568.00
2019-03-20T09:18:10.253Z,708.00
2019-03-20T09:19:42.067Z,852.00
2019-03-20T09:21:13.881Z,984.00
2019-03-20T09:22:45.803Z,1092.00
2019-03-20T09:24:17.509Z,1232.00
2019-03-20T09:25:49.324Z,1332.00
2019-03-20T09:27:21.156Z,1524.00
2019-03-20T09:28:53.004Z,1708.00
2019-03-20T09:30:24.769Z,1808.00
2019-03-20T09:31:56.580Z,1956.00
2019-03-20T09:33:28.395Z,2016.00
2019-03-20T09:35:00.382Z,2080.00
2019-03-20T09:36:42.373Z,2188.00
2019-03-20T09:38:03.836Z,2344.00
2019-03-20T09:39:35.651Z,2592.00
2019-03-20T09:41:07.566Z,2804.00
2019-03-20T09:42:39.280Z,3200.00
2019-03-20T09:44:11.096Z,3320.00
2019-03-20T09:45:42.910Z,3416.00
2019-03-20T09:47:14.724Z,3644.00
2019-03-20T09:48:46.540Z,4128.00
2019-03-20T09:50:18.356Z,4916.00
2019-03-20T09:51:50.170Z,5804.00
2019-03-20T09:53:21.985Z,6176.00
2019-03-20T09:54:53.802Z,5852.00
2019-03-20T09:56:25.821Z,5864.00
2019-03-20T09:57:57.737Z,5652.00
2019-03-20T09:59:29.353Z,5684.00
2019-03-20T10:01:01.071Z,5804.00
2019-03-20T10:02:32.884Z,5800.00
2019-03-20T10:04:04.699Z,6040.00
2019-03-20T10:05:36.518Z,6184.00
2019-03-20T10:07:08.332Z,6084.00
2019-03-20T10:08:40.148Z,6188.00
2019-03-20T10:10:11.965Z,6368.00
2019-03-20T10:11:43.832Z,6552.00
2019-03-20T10:13:15.903Z,6656.00
2019-03-20T10:14:47.818Z,6492.00
2019-03-20T10:16:19.486Z,6424.00
2019-03-20T10:17:51.414Z,6400.00
2019-03-20T10:19:24.669Z,6656.00
2019-03-20T10:20:55.038Z,6916.00
2019-03-20T10:22:26.548Z,7212.00
2019-03-20T10:23:58.322Z,7468.00
2019-03-20T10:25:30.132Z,7740.00
2019-03-20T10:27:01.953Z,7860.00
2019-03-20T10:28:33.939Z,8488.00
2019-03-20T10:30:06.621Z,9480.00
2019-03-20T10:31:37.400Z,10508.00
2019-03-20T10:33:09.216Z,10844.00
2019-03-20T10:34:41.032Z,10236.00
2019-03-20T10:36:12.952Z,9556.00
2019-03-20T10:37:44.665Z,9568.00
2019-03-20T10:39:16.483Z,10644.00
2019-03-20T10:40:48.300Z,11700.00
2019-03-20T10:42:21.176Z,12416.00
2019-03-20T10:43:52.502Z,12400.00
2019-03-20T10:45:23.753Z,12032.00
2019-03-20T10:46:55.685Z,11804.00
2019-03-20T10:48:27.468Z,11052.00
2019-03-20T10:49:59.538Z,11132.00
2019-03-20T10:51:31.178Z,11220.00
2019-03-20T10:53:02.846Z,11780.00
2019-03-20T10:54:34.660Z,11672.00
2019-03-20T10:56:06.485Z,12112.00
2019-03-20T10:57:38.422Z,13404.00
2019-03-20T10:59:10.178Z,14152.00
2019-03-20T11:00:41.932Z,14740.00
2019-03-20T11:02:13.750Z,16160.00
2019-03-20T11:03:45.568Z,18880.00
2019-03-20T11:05:17.386Z,18336.00
2019-03-20T11:06:49.424Z,15544.00
2019-03-20T11:08:21.245Z,15924.00
2019-03-20T11:09:52.843Z,16376.00
2019-03-20T11:11:27.246Z,17200.00
2019-03-20T11:12:56.580Z,17212.00
2019-03-20T11:14:28.303Z,15648.00
2019-03-20T11:16:00.434Z,13792.00
2019-03-20T11:17:31.940Z,12412.00
2019-03-20T11:19:04.045Z,12092.00
2019-03-20T11:20:35.634Z,11364.00
2019-03-20T11:22:18.393Z,11160.00
2019-03-20T11:23:39.687Z,12000.00
2019-03-20T11:25:11.092Z,12984.00
2019-03-20T11:26:43.345Z,15904.00
2019-03-20T11:28:14.711Z,15972.00
2019-03-20T11:29:46.981Z,17384.00
2019-03-20T11:31:18.759Z,19040.00
2019-03-20T11:32:50.293Z,18112.00
2019-03-20T11:34:22.207Z,17304.00
2019-03-20T11:35:54.733Z,20544.00
2019-03-20T11:38:57.405Z,15544.00
2019-03-20T11:40:30.014Z,14308.00
2019-03-20T11:42:01.288Z,15880.00
2019-03-20T11:43:33.088Z,15124.00
2019-03-20T11:45:04.887Z,15508.00
2019-03-20T11:46:37.104Z,17952.00
2019-03-20T11:48:08.427Z,21152.00
2019-03-20T11:49:40.371Z,24160.00
2019-03-20T11:51:13.308Z,24640.00
2019-03-20T11:52:45.594Z,23744.00
2019-03-20T11:54:16.082Z,22304.00
2019-03-20T11:55:47.648Z,20768.00
2019-03-20T11:57:21.588Z,19072.00
2019-03-20T11:58:51.537Z,18304.00
2019-03-20T12:00:24.063Z,23648.00
2019-03-20T12:01:56.013Z,19584.00
2019-03-20T12:03:27.056Z,19520.00
2019-03-20T12:04:59.330Z,22784.00
2019-03-20T12:06:30.952Z,19328.00
2019-03-20T12:08:02.235Z,18656.00
2019-03-20T12:09:41.069Z,18816.00
2019-03-20T12:11:05.808Z,19296.00
2019-03-20T12:12:37.567Z,19168.00
2019-03-20T12:14:09.618Z,21696.00
2019-03-20T12:15:43.440Z,27328.00
2019-03-20T12:17:13.076Z,18112.00
2019-03-20T12:18:44.788Z,18272.00
2019-03-20T12:20:17.896Z,30016.00
2019-03-20T12:21:49.679Z,31200.00
2019-03-20T12:23:21.923Z,22304.00
2019-03-20T12:24:52.663Z,26016.00
2019-03-20T12:26:24.251Z,27776.00
2019-03-20T12:27:57.960Z,27168.00
2019-03-20T12:29:29.117Z,26208.00
2019-03-20T12:30:59.405Z,28672.00
2019-03-20T12:32:32.107Z,30688.00
2019-03-20T12:34:03.058Z,30720.00
2019-03-20T12:35:35.749Z,30496.00
2019-03-20T12:37:08.204Z,32352.00
2019-03-20T12:38:39.474Z,32928.00
2019-03-20T12:40:11.353Z,31840.00
2019-03-20T12:41:42.972Z,29952.00
2019-03-20T12:43:13.936Z,27392.00
2019-03-20T12:44:46.957Z,32000.00
2019-03-20T12:46:17.850Z,43680.00
2019-03-20T12:47:51.526Z,31136.00
2019-03-20T12:49:22.853Z,26784.00
2019-03-20T12:50:53.099Z,24160.00
2019-03-20T12:52:24.921Z,22272.00
2019-03-20T12:53:56.672Z,20768.00
2019-03-20T12:55:30.951Z,19776.00
2019-03-20T12:57:00.317Z,18400.00
2019-03-20T12:58:32.292Z,16748.00
2019-03-20T13:00:04.000Z,15644.00
2019-03-20T13:01:35.834Z,16568.00
2019-03-20T13:03:07.845Z,18688.00
2019-03-20T13:04:39.429Z,20352.00
2019-03-20T13:06:11.742Z,22016.00
2019-03-20T13:07:43.068Z,24224.00
2019-03-20T13:09:15.069Z,25440.00
2019-03-20T13:10:47.690Z,25440.00
2019-03-20T13:12:18.571Z,24928.00
2019-03-20T13:13:50.385Z,24416.00
2019-03-20T13:15:22.205Z,23904.00
2019-03-20T13:16:54.135Z,22976.00
2019-03-20T13:18:25.818Z,21792.00
2019-03-20T13:19:57.689Z,21760.00
2019-03-20T13:21:29.460Z,22976.00
2019-03-20T13:23:01.281Z,24032.00
2019-03-20T13:24:33.204Z,24000.00
2019-03-20T13:26:04.996Z,22880.00
2019-03-20T13:27:36.744Z,23232.00
2019-03-20T13:29:08.565Z,24416.00
2019-03-20T13:30:40.419Z,24640.00
2019-03-20T13:32:12.208Z,24704.00
2019-03-20T13:33:44.333Z,26016.00
2019-03-20T13:35:15.951Z,27552.00
2019-03-20T13:36:47.670Z,43648.00
2019-03-20T13:38:19.581Z,72544.00
2019-03-20T13:39:51.346Z,74112.00
2019-03-20T13:41:23.188Z,72640.00
2019-03-20T13:42:54.962Z,72800.00
2019-03-20T13:44:26.895Z,69568.00
2019-03-20T13:45:58.638Z,72128.00
2019-03-20T13:47:30.491Z,74848.00
2019-03-20T13:49:02.318Z,58272.00
2019-03-20T13:50:34.138Z,69664.00
2019-03-20T13:52:06.455Z,70944.00
2019-03-20T13:53:37.900Z,70560.00
2019-03-20T13:55:09.636Z,45504.00
2019-03-20T13:56:41.466Z,43680.00
2019-03-20T13:58:13.409Z,28896.00
2019-03-20T13:59:45.211Z,26464.00
2019-03-20T14:01:17.085Z,23584.00
2019-03-20T14:02:48.794Z,22784.00
2019-03-20T14:04:20.921Z,22976.00
2019-03-20T14:05:52.480Z,25568.00
2019-03-20T14:07:24.331Z,55168.00
2019-03-20T14:08:56.059Z,33856.00
2019-03-20T14:10:28.099Z,31808.00
2019-03-20T14:11:59.808Z,26752.00
2019-03-20T14:13:31.790Z,26432.00
2019-03-20T14:15:03.313Z,27616.00
2019-03-20T14:16:35.180Z,41472.00
2019-03-20T14:18:06.959Z,76448.00
2019-03-20T14:19:38.776Z,42400.00
2019-03-20T14:21:11.009Z,41632.00
2019-03-20T14:22:42.447Z,75680.00
2019-03-20T14:24:14.418Z,37920.00
2019-03-20T14:25:46.141Z,56448.00
2019-03-20T14:27:17.942Z,83616.00
2019-03-20T14:28:51.048Z,83456.00
2019-03-20T14:30:22.350Z,86016.00
2019-03-20T14:31:53.471Z,87744.00
2019-03-20T14:33:25.200Z,88960.00
2019-03-20T14:34:57.029Z,91936.00
2019-03-20T14:36:28.887Z,71712.00
2019-03-20T14:38:00.687Z,99872.00
2019-03-20T14:39:32.562Z,102112.00
2019-03-20T14:41:04.372Z,88832.00
2019-03-20T14:42:36.238Z,33248.00
2019-03-20T14:44:08.235Z,63872.00
2019-03-20T14:45:39.861Z,67424.00
2019-03-20T14:47:11.832Z,110144.00
2019-03-20T14:48:43.774Z,57984.00
2019-03-20T14:50:15.623Z,110304.00
2019-03-20T14:51:47.448Z,87584.00
2019-03-20T14:53:19.046Z,61152.00
2019-03-20T14:54:50.994Z,48768.00
2019-03-20T14:56:22.627Z,38112.00
2019-03-20T14:57:54.604Z,29312.00
2019-03-20T14:59:27.361Z,25024.00
2019-03-20T15:01:01.208Z,22400.00
2019-03-20T15:02:32.215Z,21056.00
2019-03-20T15:04:03.297Z,20608.00
2019-03-20T15:05:34.217Z,20320.00
2019-03-20T15:07:05.940Z,20320.00
2019-03-20T15:08:37.462Z,21120.00
2019-03-20T15:10:09.387Z,23616.00
2019-03-20T15:11:41.092Z,27328.00
2019-03-20T15:13:12.765Z,30976.00
2019-03-20T15:14:46.241Z,32992.00
2019-03-20T15:16:18.606Z,35936.00
2019-03-20T15:17:49.099Z,39136.00
2019-03-20T15:19:20.105Z,42944.00
2019-03-20T15:20:51.822Z,46080.00
2019-03-20T15:22:23.808Z,48864.00
2019-03-20T15:23:56.641Z,49696.00
2019-03-20T15:25:28.951Z,48704.00
2019-03-20T15:27:00.914Z,47072.00
2019-03-20T15:28:31.576Z,47840.00
2019-03-20T15:30:03.631Z,50080.00
2019-03-20T15:31:35.415Z,118496.00
2019-03-20T15:33:07.627Z,55296.00
2019-03-20T15:34:40.220Z,62432.00
2019-03-20T15:36:12.293Z,151264.00
2019-03-20T15:37:43.013Z,56544.00
2019-03-20T15:39:15.131Z,63008.00
2019-03-20T15:40:55.881Z,57056.00
2019-03-20T15:42:19.186Z,85120.00
2019-03-20T15:43:51.551Z,69696.00
2019-03-20T15:45:22.691Z,66144.00
2019-03-20T15:46:54.951Z,54528.00
2019-03-20T15:48:25.993Z,55616.00
2019-03-20T15:49:57.474Z,49600.00
2019-03-20T15:51:29.051Z,48000.00
2019-03-20T15:53:01.328Z,47712.00
2019-03-20T15:54:32.469Z,46848.00
2019-03-20T15:56:05.998Z,45216.00
2019-03-20T15:57:39.066Z,43968.00
2019-03-20T15:59:10.608Z,44352.00
2019-03-20T16:00:41.546Z,45280.00
2019-03-20T16:02:12.658Z,45088.00
2019-03-20T16:03:43.888Z,45312.00
2019-03-20T16:05:15.770Z,46816.00
2019-03-20T16:06:47.139Z,49440.00
2019-03-20T16:08:19.106Z,50752.00
2019-03-20T16:09:50.614Z,49920.00
2019-03-20T16:11:22.537Z,48768.00
2019-03-20T16:12:54.214Z,46720.00
2019-03-20T16:14:25.990Z,46816.00
2019-03-20T16:15:57.555Z,43872.00
2019-03-20T16:17:29.620Z,50016.00
2019-03-20T16:19:02.053Z,58048.00
2019-03-20T16:20:33.063Z,65600.00
2019-03-20T16:22:04.943Z,69920.00
2019-03-20T16:23:37.877Z,58784.00
2019-03-20T16:25:08.977Z,54144.00
2019-03-20T16:26:40.454Z,52512.00
2019-03-20T16:28:12.084Z,55520.00
2019-03-20T16:29:44.874Z,60896.00
2019-03-20T16:31:15.733Z,64192.00
2019-03-20T16:32:47.797Z,58016.00
2019-03-20T16:34:20.355Z,55104.00
2019-03-20T16:35:52.709Z,56288.00
2019-03-20T16:37:25.067Z,53632.00
2019-03-20T16:39:01.954Z,55488.00
2019-03-20T16:40:26.684Z,54912.00
2019-03-20T16:42:00.041Z,54656.00
2019-03-20T16:43:31.264Z,53440.00
2019-03-20T16:45:02.677Z,54240.00
2019-03-20T16:46:33.976Z,60416.00
2019-03-20T16:48:06.113Z,62784.00
2019-03-20T16:49:37.832Z,55776.00
2019-03-20T16:51:09.803Z,54272.00
2019-03-20T16:52:41.441Z,53152.00
2019-03-20T16:54:13.302Z,53760.00
2019-03-20T16:55:44.990Z,57568.00
2019-03-20T16:57:17.330Z,55648.00
2019-03-20T16:58:48.863Z,53024.00
2019-03-20T17:00:21.564Z,53408.00
2019-03-20T17:01:54.126Z,57088.00
2019-03-20T17:03:25.422Z,61440.00
2019-03-20T17:04:56.591Z,72576.00
2019-03-20T17:06:28.416Z,65728.00
2019-03-20T17:07:59.513Z,65024.00
2019-03-20T17:09:31.468Z,65312.00
2019-03-20T17:11:03.451Z,59648.00
2019-03-20T17:12:35.403Z,57952.00
2019-03-20T17:14:07.726Z,59040.00
2019-03-20T17:15:38.726Z,69600.00
2019-03-20T17:17:10.850Z,77344.00
2019-03-20T17:18:42.620Z,79040.00
2019-03-20T17:20:14.782Z,143424.00
2019-03-20T17:21:45.923Z,77696.00
2019-03-20T17:23:17.973Z,65696.00
2019-03-20T17:24:49.700Z,64192.00
2019-03-20T17:26:21.563Z,56224.00
2019-03-20T17:27:53.491Z,52480.00
2019-03-20T17:29:25.047Z,46016.00
2019-03-20T17:30:57.370Z,41856.00
2019-03-20T17:32:28.944Z,42144.00
2019-03-20T17:34:00.829Z,45984.00
2019-03-20T17:35:32.982Z,43744.00
2019-03-20T17:37:04.171Z,40800.00
2019-03-20T17:38:36.091Z,42848.00
2019-03-20T17:40:08.999Z,43360.00
2019-03-20T17:41:39.725Z,48704.00
2019-03-20T17:43:12.408Z,62784.00
2019-03-20T17:44:44.675Z,61696.00
2019-03-20T17:46:17.383Z,76896.00
2019-03-20T17:47:47.575Z,80032.00
2019-03-20T17:49:18.748Z,70144.00
2019-03-20T17:50:50.583Z,65568.00
2019-03-20T17:52:23.351Z,79008.00
2019-03-20T17:53:55.018Z,76896.00
2019-03-20T17:55:26.054Z,134688.00
2019-03-20T17:56:57.968Z,135168.00
2019-03-20T17:58:30.155Z,58016.00
2019-03-20T18:00:02.649Z,38080.00
2019-03-20T18:01:33.576Z,49888.00
2019-03-20T18:03:05.408Z,47808.00
2019-03-20T18:04:37.255Z,43040.00
2019-03-20T18:06:08.993Z,39264.00
2019-03-20T18:07:41.563Z,37120.00
2019-03-20T18:09:13.672Z,48416.00
2019-03-20T18:10:44.396Z,43840.00
2019-03-20T18:12:16.662Z,38432.00
2019-03-20T18:13:48.777Z,34400.00
2019-03-20T18:15:19.923Z,34880.00
2019-03-20T18:16:52.139Z,35392.00
2019-03-20T18:18:24.152Z,35712.00
2019-03-20T18:19:55.342Z,36672.00
2019-03-20T18:21:27.090Z,38656.00
2019-03-20T18:22:59.113Z,41760.00
2019-03-20T18:24:30.861Z,48160.00
2019-03-20T18:26:02.780Z,48576.00
2019-03-20T18:27:34.706Z,42464.00
2019-03-20T18:29:07.987Z,42976.00
2019-03-20T18:30:38.701Z,40032.00
2019-03-20T18:32:10.166Z,88576.00
2019-03-20T18:33:43.413Z,61824.00
2019-03-20T18:35:13.696Z,92448.00
2019-03-20T18:36:46.099Z,108896.00
2019-03-20T18:38:17.826Z,56832.00
2019-03-20T18:39:49.326Z,97920.00
2019-03-20T18:41:21.498Z,76512.00
2019-03-20T18:42:53.359Z,93216.00
2019-03-20T18:44:25.307Z,58336.00
2019-03-20T18:45:57.047Z,38688.00
2019-03-20T18:47:28.259Z,36320.00
2019-03-20T18:49:00.439Z,45088.00
2019-03-20T18:50:32.290Z,106912.00
2019-03-20T18:52:03.601Z,36320.00
2019-03-20T18:53:35.553Z,98112.00
2019-03-20T18:55:07.170Z,100128.00
2019-03-20T18:56:39.112Z,97760.00
2019-03-20T18:58:10.958Z,99840.00
2019-03-20T18:59:42.643Z,79424.00
2019-03-20T19:01:14.448Z,98592.00
2019-03-20T19:02:46.757Z,28736.00
2019-03-20T19:04:18.456Z,32160.00
2019-03-20T19:05:50.320Z,34336.00